Windsor, Canada
Current Conditions -  °F | °C
As of 1:00 AM on Friday 28 Nov 2014 (Local Time) from CYQG Reporting Station
Few Clouds Few Clouds  
Wind Chill: 10°   Ceiling: Unl
Heat Index: 23°   Visibility: 15mi
Dew Point:   Wind: 16mph
Humidity: 50%   Direction: 300°WNW
Pressure: 30.3"   Gusts: NA
Location:  42.26°N, 82.96°W
Report Text: CYQG 280600Z 30014KT 15SM FEW060 M05/M14 A3030 RMK SC1 SLP268
Loading
Personal Weather Stations






























Interactive Weather Map New forecast layout! Learn more

10-Day Weather Forecast

Advertisements
Track Severe Weather on mobile